createdAt,value
2022-11-24T00:01:13.441Z,78.30
2022-11-24T00:03:41.488Z,77.97
2022-11-24T00:06:11.181Z,71.25
2022-11-24T00:08:40.510Z,69.40
2022-11-24T00:11:09.577Z,69.28
2022-11-24T00:13:39.095Z,76.07
2022-11-24T00:16:09.432Z,62.13
2022-11-24T00:18:37.679Z,59.85
2022-11-24T00:21:05.330Z,71.28
2022-11-24T00:23:33.458Z,59.53
2022-11-24T00:26:05.777Z,62.78
2022-11-24T00:28:33.951Z,56.55
2022-11-24T00:31:05.078Z,65.07
2022-11-24T00:33:32.876Z,71.55
2022-11-24T00:36:00.833Z,63.70
2022-11-24T00:38:31.060Z,57.47
2022-11-24T00:40:58.497Z,58.42
2022-11-24T00:43:26.347Z,61.15
2022-11-24T00:45:53.715Z,63.22
2022-11-24T00:48:23.255Z,56.83
2022-11-24T00:50:56.739Z,53.80
2022-11-24T00:53:24.655Z,63.72
2022-11-24T00:55:52.146Z,67.45
2022-11-24T00:58:20.174Z,64.30
2022-11-24T01:00:47.368Z,57.40
2022-11-24T01:03:15.387Z,55.70
2022-11-24T01:05:44.072Z,52.90
2022-11-24T01:08:12.345Z,50.92
2022-11-24T01:10:39.696Z,50.03
2022-11-24T01:13:07.384Z,50.53
2022-11-24T01:15:35.578Z,49.95
2022-11-24T01:18:04.014Z,46.63
2022-11-24T01:20:31.632Z,49.20
2022-11-24T01:23:00.810Z,42.92
2022-11-24T01:25:28.103Z,42.38
2022-11-24T01:27:55.778Z,38.40
2022-11-24T01:30:23.089Z,55.97
2022-11-24T01:32:50.736Z,50.22
2022-11-24T01:35:18.136Z,54.38
2022-11-24T01:37:45.858Z,50.55
2022-11-24T01:40:14.638Z,54.17
2022-11-24T01:42:48.395Z,48.67
2022-11-24T01:45:38.104Z,42.30
2022-11-24T01:48:11.451Z,49.00
2022-11-24T01:50:39.402Z,43.08
2022-11-24T01:53:07.858Z,45.15
2022-11-24T01:55:39.389Z,38.08
2022-11-24T01:58:11.244Z,44.45
2022-11-24T02:00:41.626Z,42.38
2022-11-24T02:03:11.849Z,38.03
2022-11-24T02:05:44.001Z,41.35
2022-11-24T02:08:17.871Z,51.97
2022-11-24T02:10:47.391Z,48.90
2022-11-24T02:13:15.516Z,52.60
2022-11-24T02:15:42.955Z,48.05
2022-11-24T02:18:10.823Z,55.40
2022-11-24T02:20:38.363Z,47.78
2022-11-24T02:23:13.364Z,44.92
2022-11-24T02:25:50.454Z,36.85
2022-11-24T02:28:22.489Z,38.55
2022-11-24T02:30:50.615Z,42.92
2022-11-24T02:33:20.374Z,39.15
2022-11-24T02:35:47.708Z,46.08
2022-11-24T02:38:15.497Z,43.08
2022-11-24T02:40:46.807Z,40.65
2022-11-24T02:43:19.859Z,54.53
2022-11-24T02:45:48.627Z,43.33
2022-11-24T02:48:16.580Z,50.15
2022-11-24T02:50:43.896Z,47.35
2022-11-24T02:53:11.607Z,47.45
2022-11-24T02:55:38.970Z,51.97
2022-11-24T02:58:06.822Z,43.78
2022-11-24T03:00:34.149Z,48.00
2022-11-24T03:03:03.978Z,54.00
2022-11-24T03:05:31.275Z,47.10
2022-11-24T03:07:59.058Z,49.60
2022-11-24T03:10:26.267Z,53.95
2022-11-24T03:12:54.892Z,53.13
2022-11-24T03:15:22.381Z,43.53
2022-11-24T03:17:50.342Z,51.85
2022-11-24T03:20:19.300Z,51.72
2022-11-24T03:22:47.043Z,46.72
2022-11-24T03:25:14.418Z,58.13
2022-11-24T03:27:42.192Z,45.47
2022-11-24T03:30:10.891Z,49.75
2022-11-24T03:32:38.592Z,73.28
2022-11-24T03:35:06.670Z,62.17
2022-11-24T03:37:35.781Z,87.63
2022-11-24T03:40:03.314Z,103.75
2022-11-24T03:42:31.045Z,82.55
2022-11-24T03:45:01.642Z,86.80
2022-11-24T03:47:39.312Z,83.03
2022-11-24T03:50:06.960Z,89.15
2022-11-24T03:52:36.071Z,77.55
2022-11-24T03:55:03.441Z,88.53
2022-11-24T03:57:31.147Z,84.82
2022-11-24T03:59:58.374Z,85.30
2022-11-24T04:02:26.055Z,91.60
2022-11-24T04:04:53.364Z,83.95
2022-11-24T04:07:21.039Z,80.90
2022-11-24T04:09:49.853Z,69.90
2022-11-24T04:12:17.571Z,61.63
2022-11-24T04:14:44.869Z,79.35
2022-11-24T04:17:12.689Z,74.00
2022-11-24T04:19:39.982Z,70.97
2022-11-24T04:22:07.705Z,72.18
2022-11-24T04:24:35.345Z,70.10
2022-11-24T04:27:04.600Z,59.05
2022-11-24T04:29:32.022Z,70.90
2022-11-24T04:31:59.759Z,59.17
2022-11-24T04:34:27.138Z,69.03
2022-11-24T04:36:54.965Z,66.30
2022-11-24T04:39:26.280Z,67.90
2022-11-24T04:41:54.669Z,62.25
2022-11-24T04:44:23.411Z,66.10
2022-11-24T04:46:51.241Z,58.85
2022-11-24T04:49:18.991Z,60.75
2022-11-24T04:51:47.043Z,54.85
2022-11-24T04:54:15.138Z,56.72
2022-11-24T04:56:43.531Z,63.17
2022-11-24T04:59:13.686Z,62.20
2022-11-24T05:01:43.257Z,60.15
2022-11-24T05:04:11.336Z,63.90
2022-11-24T05:06:39.362Z,77.28
2022-11-24T05:09:08.076Z,78.28
2022-11-24T05:11:35.685Z,67.88
2022-11-24T05:14:03.044Z,56.00
2022-11-24T05:16:30.840Z,59.85
2022-11-24T05:18:59.658Z,57.55
2022-11-24T05:21:28.431Z,60.90
2022-11-24T05:23:55.746Z,67.35
2022-11-24T05:26:23.480Z,66.20
2022-11-24T05:28:50.753Z,60.25
2022-11-24T05:31:18.703Z,62.92
2022-11-24T05:33:46.081Z,65.43
2022-11-24T05:36:15.281Z,69.00
2022-11-24T05:38:42.609Z,64.05
2022-11-24T05:41:10.347Z,69.75
2022-11-24T05:43:37.607Z,74.55
2022-11-24T05:46:05.439Z,69.85
2022-11-24T05:48:32.771Z,70.07
2022-11-24T05:51:03.116Z,64.25
2022-11-24T05:53:33.735Z,66.97
2022-11-24T05:56:03.457Z,59.30
2022-11-24T05:58:30.793Z,58.13
2022-11-24T06:00:58.440Z,56.17
2022-11-24T06:03:25.713Z,58.40
2022-11-24T06:05:53.445Z,57.25
2022-11-24T06:08:20.610Z,57.78
2022-11-24T06:10:49.709Z,58.03
2022-11-24T06:13:16.999Z,56.70
2022-11-24T06:15:44.811Z,58.25
2022-11-24T06:18:12.116Z,54.90
2022-11-24T06:20:39.711Z,55.40
2022-11-24T06:23:06.966Z,60.35
2022-11-24T06:25:34.537Z,58.65
2022-11-24T06:28:05.017Z,59.22
2022-11-24T06:30:32.767Z,49.42
2022-11-24T06:33:00.452Z,49.25
2022-11-24T06:35:28.133Z,48.03
2022-11-24T06:37:55.463Z,46.33
2022-11-24T06:40:23.099Z,44.10
2022-11-24T06:42:50.841Z,48.15
2022-11-24T06:45:20.026Z,48.95
2022-11-24T06:47:47.239Z,52.08
2022-11-24T06:50:15.194Z,58.55
2022-11-24T06:52:42.662Z,52.42
2022-11-24T06:55:10.416Z,55.22
2022-11-24T06:57:37.795Z,58.97
2022-11-24T07:00:07.150Z,53.95
2022-11-24T07:02:39.818Z,56.42
2022-11-24T07:05:10.282Z,57.25
2022-11-24T07:07:37.694Z,75.97
2022-11-24T07:10:06.595Z,70.63
2022-11-24T07:12:34.627Z,72.22
2022-11-24T07:15:02.324Z,65.22
2022-11-24T07:17:29.794Z,70.47
2022-11-24T07:19:59.006Z,59.78
2022-11-24T07:22:26.307Z,60.28
2022-11-24T07:24:54.118Z,75.93
2022-11-24T07:27:23.551Z,62.92
2022-11-24T07:29:51.129Z,62.92
2022-11-24T07:32:18.447Z,67.30
2022-11-24T07:34:46.289Z,62.30
2022-11-24T07:37:15.284Z,66.57
2022-11-24T07:39:42.986Z,62.70
2022-11-24T07:42:10.211Z,58.72
2022-11-24T07:44:37.811Z,70.65
2022-11-24T07:47:05.186Z,74.30
2022-11-24T07:49:32.911Z,66.43
2022-11-24T07:52:00.184Z,63.97
2022-11-24T07:54:29.317Z,67.35
2022-11-24T07:56:56.961Z,75.22
2022-11-24T07:59:24.637Z,68.82
2022-11-24T08:01:52.041Z,60.13
2022-11-24T08:04:19.936Z,59.88
2022-11-24T08:06:47.741Z,58.95
2022-11-24T08:09:15.643Z,53.33
2022-11-24T08:11:44.223Z,59.38
2022-11-24T08:14:11.840Z,57.85
2022-11-24T08:16:39.208Z,55.05
2022-11-24T08:19:06.828Z,59.85
2022-11-24T08:21:34.042Z,64.32
2022-11-24T08:24:01.796Z,53.45
2022-11-24T08:26:29.260Z,57.83
2022-11-24T08:28:59.628Z,51.88
2022-11-24T08:31:28.598Z,59.97
2022-11-24T08:33:56.225Z,58.00
2022-11-24T08:36:23.543Z,59.72
2022-11-24T08:38:55.321Z,67.20
2022-11-24T08:41:23.327Z,61.95
2022-11-24T08:43:51.420Z,56.05
2022-11-24T08:46:20.598Z,57.50
2022-11-24T08:48:49.237Z,57.03
2022-11-24T08:51:18.388Z,54.67
2022-11-24T08:53:46.708Z,56.15
2022-11-24T08:56:14.632Z,61.38
2022-11-24T08:58:42.479Z,64.47
2022-11-24T09:01:11.378Z,74.38
2022-11-24T09:03:46.353Z,67.88
2022-11-24T09:06:16.418Z,70.20
2022-11-24T09:08:44.328Z,69.00
2022-11-24T09:11:13.772Z,66.65
2022-11-24T09:13:41.511Z,67.70
2022-11-24T09:16:11.293Z,64.72
2022-11-24T09:18:40.904Z,65.97
2022-11-24T09:21:09.577Z,59.38
2022-11-24T09:23:37.749Z,76.18
2022-11-24T09:26:06.331Z,72.40
2022-11-24T09:28:34.124Z,67.18
2022-11-24T09:31:02.022Z,64.63
2022-11-24T09:33:29.872Z,68.72
2022-11-24T09:35:58.617Z,78.10
2022-11-24T09:38:26.831Z,74.68
2022-11-24T09:40:57.816Z,64.63
2022-11-24T09:43:33.289Z,69.28
2022-11-24T09:46:08.993Z,78.07
2022-11-24T09:48:40.256Z,80.10
2022-11-24T09:51:12.374Z,71.88
2022-11-24T09:53:46.018Z,79.85
2022-11-24T09:56:20.642Z,71.15
2022-11-24T09:58:50.336Z,73.55
2022-11-24T10:01:19.811Z,72.43
2022-11-24T10:03:50.186Z,67.85
2022-11-24T10:06:27.492Z,71.63
2022-11-24T10:09:10.676Z,74.43
2022-11-24T10:11:43.078Z,75.88
2022-11-24T10:16:55.873Z,78.25
2022-11-24T10:19:37.548Z,73.40
2022-11-24T10:22:23.706Z,80.57
2022-11-24T10:25:09.271Z,68.88
2022-11-24T10:27:41.864Z,75.28
2022-11-24T10:30:15.440Z,71.32
2022-11-24T10:32:46.629Z,78.05
2022-11-24T10:35:18.147Z,87.00
2022-11-24T10:37:54.514Z,74.85
2022-11-24T10:43:19.150Z,71.53
2022-11-24T10:45:47.445Z,77.28
2022-11-24T10:48:20.671Z,81.15
2022-11-24T10:50:48.414Z,67.60
2022-11-24T10:53:23.205Z,73.82
2022-11-24T10:56:02.484Z,75.22
2022-11-24T10:58:36.054Z,65.65
2022-11-24T11:01:20.845Z,71.75
2022-11-24T11:03:50.165Z,66.15
2022-11-24T11:06:22.609Z,64.57
2022-11-24T11:09:16.654Z,59.92
2022-11-24T11:11:44.338Z,59.08
2022-11-24T11:14:11.741Z,68.93
2022-11-24T11:16:41.336Z,59.30
2022-11-24T11:19:48.493Z,61.63
2022-11-24T11:22:24.979Z,55.00
2022-11-24T11:25:14.118Z,58.97
2022-11-24T11:27:42.545Z,61.35
2022-11-24T11:36:10.499Z,51.28
2022-11-24T11:38:40.485Z,63.65
2022-11-24T11:41:19.220Z,62.15
2022-11-24T11:43:50.553Z,68.43
2022-11-24T11:46:17.981Z,60.90
2022-11-24T11:48:47.663Z,71.60
2022-11-24T11:51:33.659Z,71.78
2022-11-24T11:54:08.317Z,68.05
2022-11-24T11:56:41.513Z,66.80
2022-11-24T11:59:39.310Z,66.88
2022-11-24T12:02:35.118Z,68.43
2022-11-24T12:05:11.137Z,69.15
2022-11-24T12:08:09.201Z,68.47
2022-11-24T12:10:45.743Z,65.72
2022-11-24T12:13:45.766Z,69.72
2022-11-24T12:16:30.341Z,67.53
2022-11-24T12:19:15.095Z,77.35
2022-11-24T12:21:52.243Z,73.00
2022-11-24T12:24:28.500Z,72.65
2022-11-24T12:27:00.025Z,70.63
2022-11-24T12:29:57.201Z,76.70
2022-11-24T12:32:40.904Z,69.55
2022-11-24T12:35:18.932Z,71.30
2022-11-24T12:37:56.477Z,63.45
2022-11-24T12:40:35.519Z,65.13
2022-11-24T12:43:11.620Z,76.53
2022-11-24T12:45:49.905Z,69.03
2022-11-24T12:48:29.164Z,69.10
2022-11-24T12:50:58.410Z,67.13
2022-11-24T12:53:29.315Z,74.10
2022-11-24T12:56:04.605Z,66.93
2022-11-24T12:58:40.425Z,72.28
2022-11-24T13:01:17.841Z,73.05
2022-11-24T13:04:00.681Z,69.95
2022-11-24T13:06:35.256Z,70.80
2022-11-24T13:09:08.527Z,67.00
2022-11-24T13:11:40.134Z,65.38
2022-11-24T13:14:14.876Z,67.63
2022-11-24T13:19:46.954Z,59.55
2022-11-24T13:22:17.047Z,61.95
2022-11-24T13:24:45.073Z,63.20
2022-11-24T13:27:39.908Z,64.03
2022-11-24T13:30:50.173Z,62.80
2022-11-24T13:33:34.232Z,72.93
2022-11-24T13:36:31.683Z,66.38
2022-11-24T13:39:00.097Z,69.78
2022-11-24T13:42:07.607Z,67.00
2022-11-24T13:44:49.567Z,71.78
2022-11-24T13:47:41.280Z,64.22
2022-11-24T13:50:14.570Z,67.78
2022-11-24T13:52:50.719Z,64.90
2022-11-24T13:55:23.620Z,58.72
2022-11-24T13:57:53.668Z,64.93
2022-11-24T14:00:24.320Z,64.78
2022-11-24T14:02:55.137Z,71.72
2022-11-24T14:05:33.692Z,68.28
2022-11-24T14:08:04.943Z,64.13
2022-11-24T14:10:35.737Z,61.25
2022-11-24T14:13:26.988Z,63.67
2022-11-24T14:16:06.037Z,67.13
2022-11-24T14:18:35.517Z,69.90
2022-11-24T14:21:22.341Z,67.05
2022-11-24T14:23:54.503Z,58.80
2022-11-24T14:26:24.328Z,65.20
2022-11-24T14:29:05.025Z,65.80
2022-11-24T14:31:32.385Z,61.10
2022-11-24T14:34:25.084Z,63.17
2022-11-24T14:36:53.625Z,62.63
2022-11-24T14:39:24.269Z,58.33
2022-11-24T14:41:53.520Z,68.05
2022-11-24T14:44:23.825Z,58.60
2022-11-24T14:47:00.543Z,67.95
2022-11-24T14:49:28.760Z,67.57
2022-11-24T14:51:58.437Z,73.80
2022-11-24T14:54:28.640Z,67.07
2022-11-24T14:56:58.859Z,78.57
2022-11-24T14:59:28.382Z,74.90
2022-11-24T15:01:56.201Z,83.47
2022-11-24T15:07:18.712Z,67.22
2022-11-24T15:09:52.544Z,67.82
2022-11-24T15:12:26.349Z,77.03
2022-11-24T15:14:56.586Z,79.15
2022-11-24T15:17:27.100Z,88.53
2022-11-24T15:19:58.510Z,85.60
2022-11-24T15:22:37.971Z,88.72
2022-11-24T15:25:34.229Z,81.95
2022-11-24T15:28:01.459Z,71.63
2022-11-24T15:30:30.242Z,70.25
2022-11-24T15:32:58.996Z,68.05
2022-11-24T15:35:31.050Z,69.47
2022-11-24T15:37:58.726Z,61.55
2022-11-24T15:40:26.310Z,46.30
2022-11-24T15:42:57.900Z,48.90
2022-11-24T15:45:27.192Z,66.88
2022-11-24T15:47:54.485Z,73.70
2022-11-24T15:50:22.094Z,40.50
2022-11-24T15:52:49.597Z,63.40
2022-11-24T15:55:19.464Z,70.15
2022-11-24T15:57:47.378Z,65.78
2022-11-24T16:00:19.792Z,50.75
2022-11-24T16:02:47.533Z,50.90
2022-11-24T16:05:17.633Z,68.32
2022-11-24T16:07:45.233Z,60.72
2022-11-24T16:10:21.853Z,40.10
2022-11-24T16:12:49.127Z,46.15
2022-11-24T16:15:18.292Z,50.40
2022-11-24T16:17:48.493Z,58.75
2022-11-24T16:20:16.426Z,53.75
2022-11-24T16:22:44.154Z,43.22
2022-11-24T16:25:12.651Z,53.05
2022-11-24T16:27:39.981Z,63.50
2022-11-24T16:30:09.359Z,70.35
2022-11-24T16:32:38.092Z,72.72
2022-11-24T16:35:09.285Z,79.05
2022-11-24T16:37:36.633Z,60.97
2022-11-24T16:40:06.081Z,68.65
2022-11-24T16:42:33.541Z,72.05
2022-11-24T16:45:01.288Z,66.85
2022-11-24T16:47:28.756Z,65.40
2022-11-24T16:49:58.014Z,72.90
2022-11-24T16:52:25.367Z,64.45
2022-11-24T16:54:53.273Z,64.93
2022-11-24T16:57:20.590Z,59.80
2022-11-24T16:59:48.406Z,62.30
2022-11-24T17:02:15.894Z,61.95
2022-11-24T17:04:43.639Z,61.35
2022-11-24T17:07:12.641Z,59.22
2022-11-24T17:09:40.967Z,64.82
2022-11-24T17:12:08.421Z,65.22
2022-11-24T17:14:36.466Z,64.35
2022-11-24T17:17:04.195Z,69.55
2022-11-24T17:19:32.020Z,71.63
2022-11-24T17:21:59.376Z,62.00
2022-11-24T17:24:28.501Z,66.18
2022-11-24T17:26:55.944Z,70.18
2022-11-24T17:29:23.604Z,44.15
2022-11-24T17:31:50.952Z,56.08
2022-11-24T17:34:19.191Z,52.45
2022-11-24T17:36:46.661Z,47.05
2022-11-24T17:39:14.443Z,43.92
2022-11-24T17:41:43.312Z,40.67
2022-11-24T17:44:14.108Z,51.13
2022-11-24T17:46:43.699Z,54.00
2022-11-24T17:49:15.471Z,54.15
2022-11-24T17:51:43.618Z,62.97
2022-11-24T17:54:39.103Z,57.35
2022-11-24T17:57:01.457Z,63.15
2022-11-24T17:59:29.454Z,52.10
2022-11-24T18:01:56.776Z,65.80
2022-11-24T18:04:24.486Z,59.90
2022-11-24T18:06:51.913Z,60.75
2022-11-24T18:09:19.896Z,66.18
2022-11-24T18:11:47.222Z,67.88
2022-11-24T18:14:16.564Z,64.78
2022-11-24T18:16:44.100Z,75.50
2022-11-24T18:19:12.188Z,68.65
2022-11-24T18:21:41.057Z,53.97
2022-11-24T18:24:10.543Z,51.08
2022-11-24T18:26:38.886Z,53.63
2022-11-24T18:29:07.228Z,57.95
2022-11-24T18:31:36.706Z,43.53
2022-11-24T18:34:05.940Z,55.10
2022-11-24T18:36:33.966Z,45.50
2022-11-24T18:39:02.293Z,58.58
2022-11-24T18:41:29.869Z,68.00
2022-11-24T18:43:57.695Z,51.83
2022-11-24T18:46:25.063Z,44.97
2022-11-24T18:48:55.205Z,51.45
2022-11-24T18:51:22.507Z,52.92
2022-11-24T18:53:52.795Z,47.25
2022-11-24T18:56:20.528Z,44.80
2022-11-24T18:58:48.372Z,43.40
2022-11-24T19:01:17.506Z,59.58
2022-11-24T19:03:48.986Z,62.88
2022-11-24T19:06:21.947Z,71.78
2022-11-24T19:08:53.592Z,47.60
2022-11-24T19:11:23.587Z,82.00
2022-11-24T19:13:52.156Z,71.57
2022-11-24T19:16:20.663Z,74.65
2022-11-24T19:18:53.331Z,58.67
2022-11-24T19:21:23.262Z,81.20
2022-11-24T19:23:51.145Z,81.43
2022-11-24T19:26:18.952Z,80.32
2022-11-24T19:28:47.191Z,70.30
2022-11-24T19:31:16.224Z,62.55
2022-11-24T19:33:44.710Z,70.18
2022-11-24T19:36:14.901Z,62.47
2022-11-24T19:38:50.070Z,64.68
2022-11-24T19:41:18.318Z,60.03
2022-11-24T19:43:46.561Z,65.28
2022-11-24T19:46:16.153Z,64.53
2022-11-24T19:48:45.944Z,68.35
2022-11-24T19:51:15.401Z,65.40
2022-11-24T19:53:45.111Z,63.95
2022-11-24T19:56:13.964Z,66.93
2022-11-24T19:58:42.465Z,67.60
2022-11-24T20:01:12.374Z,74.57
2022-11-24T20:03:41.511Z,71.13
2022-11-24T20:06:10.163Z,80.25
2022-11-24T20:08:38.914Z,68.68
2022-11-24T20:11:10.217Z,67.18
2022-11-24T20:13:39.870Z,59.58
2022-11-24T20:16:09.593Z,65.15
2022-11-24T20:18:41.961Z,63.20
2022-11-24T20:21:11.896Z,64.07
2022-11-24T20:23:40.827Z,57.47
2022-11-24T20:26:12.327Z,74.95
2022-11-24T20:28:41.518Z,70.05
2022-11-24T20:31:11.410Z,66.88
2022-11-24T20:33:39.922Z,67.75
2022-11-24T20:36:09.587Z,77.80
2022-11-24T20:38:38.975Z,75.47
2022-11-24T20:41:09.998Z,62.97
2022-11-24T20:43:38.223Z,69.03
2022-11-24T20:46:08.182Z,67.47
2022-11-24T20:48:37.257Z,65.03
2022-11-24T20:51:05.405Z,64.65
2022-11-24T20:53:33.243Z,64.80
2022-11-24T20:56:05.559Z,69.68
2022-11-24T20:58:36.116Z,77.43
2022-11-24T21:01:04.666Z,87.55
2022-11-24T21:03:32.835Z,82.38
2022-11-24T21:06:00.564Z,84.43
2022-11-24T21:08:28.382Z,85.20
2022-11-24T21:10:57.267Z,88.30
2022-11-24T21:13:25.918Z,98.43
2022-11-24T21:15:55.502Z,90.10
2022-11-24T21:18:23.171Z,93.20
2022-11-24T21:20:50.360Z,99.22
2022-11-24T21:23:18.075Z,85.65
2022-11-24T21:25:45.366Z,88.32
2022-11-24T21:28:13.085Z,92.20
2022-11-24T21:30:40.418Z,93.25
2022-11-24T21:33:09.581Z,86.03
2022-11-24T21:35:37.275Z,87.07
2022-11-24T21:38:05.269Z,85.22
2022-11-24T21:40:32.536Z,83.35
2022-11-24T21:43:00.329Z,75.78
2022-11-24T21:45:27.695Z,82.43
2022-11-24T21:47:56.185Z,70.13
2022-11-24T21:50:25.048Z,74.90
2022-11-24T21:52:52.739Z,80.10
2022-11-24T21:55:20.012Z,79.93
2022-11-24T21:57:48.121Z,73.80
2022-11-24T22:00:16.383Z,76.65
2022-11-24T22:02:44.267Z,79.40
2022-11-24T22:05:11.668Z,74.63
2022-11-24T22:07:40.765Z,70.90
2022-11-24T22:10:09.373Z,65.28
2022-11-24T22:12:37.201Z,64.82
2022-11-24T22:15:05.070Z,65.63
2022-11-24T22:17:32.978Z,78.32
2022-11-24T22:20:00.327Z,68.13
2022-11-24T22:22:28.061Z,70.47
2022-11-24T22:24:56.613Z,74.35
2022-11-24T22:27:24.351Z,68.85
2022-11-24T22:29:54.232Z,77.72
2022-11-24T22:32:22.058Z,77.15
2022-11-24T22:34:49.953Z,73.65
2022-11-24T22:37:18.058Z,76.43
2022-11-24T22:39:45.550Z,76.72
2022-11-24T22:42:15.263Z,77.10
2022-11-24T22:44:43.155Z,85.88
2022-11-24T22:47:12.590Z,81.60
2022-11-24T22:49:39.959Z,84.28
2022-11-24T22:52:07.568Z,73.03
2022-11-24T22:54:35.026Z,74.05
2022-11-24T22:57:02.942Z,85.30
2022-11-24T22:59:31.589Z,82.50
2022-11-24T23:01:59.292Z,72.20
2022-11-24T23:04:26.754Z,80.10
2022-11-24T23:06:54.546Z,78.50
2022-11-24T23:09:21.962Z,81.07
2022-11-24T23:11:49.639Z,87.05
2022-11-24T23:14:17.113Z,79.25
2022-11-24T23:16:46.325Z,78.45
2022-11-24T23:19:13.697Z,69.22
2022-11-24T23:21:41.312Z,84.07
2022-11-24T23:24:10.221Z,69.72
2022-11-24T23:26:40.748Z,75.18
2022-11-24T23:29:09.703Z,75.35
2022-11-24T23:31:40.663Z,59.15
2022-11-24T23:34:09.962Z,62.35
2022-11-24T23:36:38.312Z,70.68
2022-11-24T23:39:13.716Z,76.45
2022-11-24T23:41:41.499Z,73.32
2022-11-24T23:44:08.989Z,66.80
2022-11-24T23:46:36.878Z,69.65
2022-11-24T23:49:04.138Z,81.55
2022-11-24T23:51:34.286Z,87.47
2022-11-24T23:54:01.630Z,88.35
2022-11-24T23:56:31.295Z,93.43
2022-11-24T23:59:00.471Z,76.50
